Time;durP1;ratioP1;P1;durP2;ratioP2;P2;SDS_P1;SDS_P2;PMS_P1;PMS_P2;Temp;Humidity;BMP_temperature;BMP_pressure;BME280_temperature;BME280_humidity;BME280_pressure;Samples;Min_cycle;Max_cycle;Signal;HPM_P1;HPM_P2
2024/01/06 00:00:37;;;;;;;19.87;10.83;;;;;;;;;;5111003;28;20664;-78
2024/01/06 00:03:06;;;;;;;18.70;12.43;;;;;;;;;;5110417;28;20201;-78
2024/01/06 00:05:33;;;;;;;16.53;12.27;;;;;;;;;;5111225;28;20221;-78
2024/01/06 00:08:00;;;;;;;15.93;11.77;;;;;;;;;;5111566;28;20296;-78
2024/01/06 00:10:27;;;;;;;18.43;11.90;;;;;;;;;;5120669;28;20283;-77
2024/01/06 00:12:55;;;;;;;15.67;11.20;;;;;;;;;;5131856;28;20316;-78
2024/01/06 00:15:22;;;;;;;14.60;10.93;;;;;;;;;;5131582;28;20631;-77
2024/01/06 00:17:49;;;;;;;15.30;10.53;;;;;;;;;;5132010;27;20221;-78
2024/01/06 00:20:17;;;;;;;13.20;10.50;;;;;;;;;;5130344;27;20240;-78
2024/01/06 00:22:45;;;;;;;17.60;12.27;;;;;;;;;;5132088;27;20253;-77
2024/01/06 00:25:12;;;;;;;16.13;12.60;;;;;;;;;;5134096;27;20199;-79
2024/01/06 00:27:39;;;;;;;16.37;13.00;;;;;;;;;;5135475;27;20295;-77
2024/01/06 00:30:08;;;;;;;18.47;12.10;;;;;;;;;;5135522;27;20197;-77
2024/01/06 00:32:35;;;;;;;17.47;12.87;;;;;;;;;;5136181;27;20232;-78
2024/01/06 00:35:02;;;;;;;20.10;13.73;;;;;;;;;;5135301;27;20192;-78
2024/01/06 00:37:31;;;;;;;19.33;13.90;;;;;;;;;;5117063;27;20198;-78
2024/01/06 00:39:58;;;;;;;17.83;13.63;;;;;;;;;;5115552;27;20228;-77
2024/01/06 00:42:25;;;;;;;21.37;13.60;;;;;;;;;;5114379;28;20236;-77
2024/01/06 00:44:52;;;;;;;17.87;13.20;;;;;;;;;;5114682;28;20284;-77
2024/01/06 00:47:22;;;;;;;20.57;14.07;;;;;;;;;;5114334;28;20229;-78
2024/01/06 00:49:49;;;;;;;16.70;13.33;;;;;;;;;;5114767;27;20190;-77
2024/01/06 00:52:16;;;;;;;21.20;15.50;;;;;;;;;;5115473;27;20253;-77
2024/01/06 00:54:45;;;;;;;22.80;15.90;;;;;;;;;;5114458;28;20233;-77
2024/01/06 00:57:12;;;;;;;23.63;15.70;;;;;;;;;;5114341;28;20284;-78
2024/01/06 00:59:39;;;;;;;23.17;16.83;;;;;;;;;;5113794;28;20261;-77
2024/01/06 01:02:06;;;;;;;23.97;16.13;;;;;;;;;;5113477;28;20215;-78
2024/01/06 01:04:33;;;;;;;19.70;15.10;;;;;;;;;;5113701;28;20229;-77
2024/01/06 01:07:00;;;;;;;17.33;14.07;;;;;;;;;;5113721;28;20644;-78
2024/01/06 01:09:28;;;;;;;20.73;15.23;;;;;;;;;;5114040;28;20666;-78
2024/01/06 01:11:56;;;;;;;18.63;14.23;;;;;;;;;;5113707;28;20217;-77
2024/01/06 01:14:23;;;;;;;18.10;13.83;;;;;;;;;;5114182;28;20206;-76
2024/01/06 01:16:50;;;;;;;22.43;16.20;;;;;;;;;;5113931;28;20281;-78
2024/01/06 01:19:18;;;;;;;25.00;15.67;;;;;;;;;;5113355;28;20229;-77
2024/01/06 01:21:45;;;;;;;23.10;16.70;;;;;;;;;;5113682;28;20227;-76
2024/01/06 01:24:12;;;;;;;23.00;16.07;;;;;;;;;;5113786;28;20286;-77
2024/01/06 01:26:39;;;;;;;23.13;16.53;;;;;;;;;;5114203;28;20717;-79
2024/01/06 01:29:08;;;;;;;21.57;15.47;;;;;;;;;;5113950;28;20642;-78
2024/01/06 01:31:35;;;;;;;25.83;16.20;;;;;;;;;;5113682;28;20589;-77
2024/01/06 01:34:02;;;;;;;21.90;15.90;;;;;;;;;;5103870;28;20701;-77
2024/01/06 01:36:29;;;;;;;21.33;14.90;;;;;;;;;;5101863;28;20240;-78
2024/01/06 01:38:56;;;;;;;21.90;15.07;;;;;;;;;;5113367;28;20288;-78
2024/01/06 01:41:23;;;;;;;21.63;15.83;;;;;;;;;;5113876;28;20196;-77
2024/01/06 01:43:57;;;;;;;19.53;14.63;;;;;;;;;;5112775;28;20200;-78
2024/01/06 01:46:27;;;;;;;19.63;13.97;;;;;;;;;;5112416;28;20217;-77
2024/01/06 01:48:54;;;;;;;20.73;14.67;;;;;;;;;;5113724;28;20232;-77
2024/01/06 01:51:22;;;;;;;18.93;13.70;;;;;;;;;;5113602;28;20654;-77
2024/01/06 01:53:50;;;;;;;19.53;14.07;;;;;;;;;;5113431;28;20677;-77
2024/01/06 01:56:17;;;;;;;17.63;12.80;;;;;;;;;;5113505;28;20286;-78
2024/01/06 01:58:44;;;;;;;18.20;12.90;;;;;;;;;;5113847;28;20749;-78
2024/01/06 02:01:11;;;;;;;18.23;12.60;;;;;;;;;;5113340;28;20256;-77
2024/01/06 02:03:43;;;;;;;17.17;12.93;;;;;;;;;;5113338;28;20432;-78
2024/01/06 02:06:10;;;;;;;16.00;12.30;;;;;;;;;;5113616;28;20638;-77
2024/01/06 02:08:37;;;;;;;14.70;11.90;;;;;;;;;;5112966;28;20204;-78
2024/01/06 02:11:05;;;;;;;18.90;11.90;;;;;;;;;;5112906;28;20194;-78
2024/01/06 02:13:35;;;;;;;17.10;11.37;;;;;;;;;;5112994;28;20264;-78
2024/01/06 02:16:02;;;;;;;14.73;10.40;;;;;;;;;;5112791;28;20292;-78
2024/01/06 02:18:29;;;;;;;15.30;10.47;;;;;;;;;;5112920;28;20281;-77
2024/01/06 02:20:59;;;;;;;14.80;10.17;;;;;;;;;;5113314;28;20235;-77
2024/01/06 02:23:28;;;;;;;16.30;11.10;;;;;;;;;;5113566;28;20293;-77
2024/01/06 02:25:55;;;;;;;13.90;10.80;;;;;;;;;;5112605;28;20652;-78
2024/01/06 02:28:22;;;;;;;14.47;9.90;;;;;;;;;;5112673;28;20228;-77
2024/01/06 02:30:49;;;;;;;16.33;10.53;;;;;;;;;;5112713;28;20598;-78
2024/01/06 02:33:16;;;;;;;12.27;9.67;;;;;;;;;;5112264;28;20320;-77
2024/01/06 02:35:44;;;;;;;14.27;9.70;;;;;;;;;;5112999;28;20228;-77
2024/01/06 02:38:11;;;;;;;13.10;9.20;;;;;;;;;;5112651;28;20684;-77
2024/01/06 02:40:39;;;;;;;14.83;8.83;;;;;;;;;;5112191;28;20662;-77
2024/01/06 02:43:07;;;;;;;10.77;7.93;;;;;;;;;;5112261;28;20243;-75
2024/01/06 02:45:34;;;;;;;12.23;8.57;;;;;;;;;;5112516;28;20273;-77
2024/01/06 02:48:01;;;;;;;11.33;7.80;;;;;;;;;;5096363;28;20198;-77
2024/01/06 02:50:28;;;;;;;15.27;8.00;;;;;;;;;;5110919;28;20284;-77
2024/01/06 02:52:55;;;;;;;9.23;6.53;;;;;;;;;;5111990;28;20228;-77
2024/01/06 02:55:22;;;;;;;8.03;5.40;;;;;;;;;;5112248;28;20239;-77
2024/01/06 02:57:51;;;;;;;9.10;5.53;;;;;;;;;;5112754;28;20193;-78
2024/01/06 03:00:18;;;;;;;8.33;4.73;;;;;;;;;;5111691;28;20415;-78
2024/01/06 03:02:45;;;;;;;8.57;4.70;;;;;;;;;;5112297;28;20288;-78
2024/01/06 03:05:13;;;;;;;8.30;4.40;;;;;;;;;;5111937;28;20288;-77
2024/01/06 03:07:40;;;;;;;8.90;4.90;;;;;;;;;;5111866;28;20284;-78
2024/01/06 03:10:07;;;;;;;8.07;4.80;;;;;;;;;;5111795;28;20280;-77
2024/01/06 03:12:34;;;;;;;5.43;4.33;;;;;;;;;;5107949;28;20318;-76
2024/01/06 03:15:03;;;;;;;9.03;4.53;;;;;;;;;;5101795;28;20241;-78
2024/01/06 03:17:30;;;;;;;5.87;4.30;;;;;;;;;;5091657;28;20229;-77
2024/01/06 03:19:58;;;;;;;7.73;4.50;;;;;;;;;;5091121;28;20289;-78
2024/01/06 03:22:25;;;;;;;6.47;4.53;;;;;;;;;;5091986;28;20194;-78
2024/01/06 03:24:52;;;;;;;6.47;4.40;;;;;;;;;;5091580;28;20195;-77
2024/01/06 03:27:20;;;;;;;7.37;4.43;;;;;;;;;;5091480;28;20636;-77
2024/01/06 03:29:47;;;;;;;9.07;4.17;;;;;;;;;;5090821;28;20811;-78
2024/01/06 03:32:16;;;;;;;7.33;4.10;;;;;;;;;;5091535;28;20226;-77
2024/01/06 03:34:43;;;;;;;6.07;4.20;;;;;;;;;;5091432;28;20225;-78
2024/01/06 03:37:10;;;;;;;6.50;4.27;;;;;;;;;;5106995;28;20205;-77
2024/01/06 03:39:37;;;;;;;8.60;4.77;;;;;;;;;;5111644;28;20199;-77
2024/01/06 03:42:04;;;;;;;8.73;4.50;;;;;;;;;;5111698;28;20658;-77
2024/01/06 03:44:33;;;;;;;5.80;4.57;;;;;;;;;;5111603;28;20232;-77
2024/01/06 03:47:00;;;;;;;6.50;4.67;;;;;;;;;;5111832;28;20243;-77
2024/01/06 03:49:29;;;;;;;6.43;4.60;;;;;;;;;;5111332;28;20789;-76
2024/01/06 03:51:56;;;;;;;6.50;4.50;;;;;;;;;;5111573;28;20284;-78
2024/01/06 03:54:23;;;;;;;7.77;4.53;;;;;;;;;;5111680;28;20641;-78
2024/01/06 03:56:51;;;;;;;7.37;4.40;;;;;;;;;;5111893;28;20239;-77
2024/01/06 03:59:18;;;;;;;8.73;5.03;;;;;;;;;;5111938;28;20229;-77
2024/01/06 04:01:45;;;;;;;6.43;4.63;;;;;;;;;;5115892;28;20231;-78
2024/01/06 04:04:12;;;;;;;6.67;4.53;;;;;;;;;;5115879;28;20289;-77
2024/01/06 04:06:41;;;;;;;6.20;4.60;;;;;;;;;;5115415;28;20687;-78
2024/01/06 04:09:09;;;;;;;7.33;4.57;;;;;;;;;;5115362;28;20666;-77
2024/01/06 04:11:36;;;;;;;8.03;4.90;;;;;;;;;;5115928;28;20607;-78
2024/01/06 04:14:03;;;;;;;7.83;5.40;;;;;;;;;;5114417;28;20268;-78
2024/01/06 04:16:30;;;;;;;9.23;5.73;;;;;;;;;;5115555;28;20204;-78
2024/01/06 04:18:57;;;;;;;9.53;6.27;;;;;;;;;;5115551;28;20288;-78
2024/01/06 04:21:25;;;;;;;10.83;6.47;;;;;;;;;;5115465;28;20232;-77
2024/01/06 04:23:54;;;;;;;12.03;6.93;;;;;;;;;;5114987;28;20200;-78
2024/01/06 04:26:21;;;;;;;9.77;7.00;;;;;;;;;;5115055;28;20204;-77
2024/01/06 04:28:48;;;;;;;10.67;6.83;;;;;;;;;;5114716;28;20208;-78
2024/01/06 04:31:15;;;;;;;11.83;6.97;;;;;;;;;;5115286;28;20198;-77
2024/01/06 04:33:42;;;;;;;8.70;5.93;;;;;;;;;;5115745;28;20229;-77
2024/01/06 04:36:10;;;;;;;8.73;6.33;;;;;;;;;;5115026;28;20647;-77
2024/01/06 04:38:37;;;;;;;8.57;6.10;;;;;;;;;;5115002;28;20258;-77
2024/01/06 04:41:05;;;;;;;7.07;5.83;;;;;;;;;;5097438;28;20202;-78
2024/01/06 04:43:32;;;;;;;7.97;5.53;;;;;;;;;;5114564;28;20292;-77
2024/01/06 04:46:00;;;;;;;7.33;5.47;;;;;;;;;;5114811;28;20284;-78
2024/01/06 04:48:27;;;;;;;9.47;5.87;;;;;;;;;;5114483;28;20280;-78
2024/01/06 04:50:54;;;;;;;8.30;5.57;;;;;;;;;;5113335;28;20190;-77
2024/01/06 04:53:21;;;;;;;8.10;5.17;;;;;;;;;;5114664;28;20227;-77
2024/01/06 04:55:49;;;;;;;8.00;5.03;;;;;;;;;;5113534;28;20204;-78
2024/01/06 04:58:17;;;;;;;6.60;5.03;;;;;;;;;;5114461;28;20225;-78
2024/01/06 05:00:44;;;;;;;6.00;4.67;;;;;;;;;;5114476;28;20657;-77
2024/01/06 05:03:10;;;;;;;6.83;4.77;;;;;;;;;;5114417;28;20292;-78
2024/01/06 05:05:37;;;;;;;6.77;4.60;;;;;;;;;;5114146;28;20216;-77
2024/01/06 05:08:05;;;;;;;6.47;4.30;;;;;;;;;;5113739;28;20732;-77
2024/01/06 05:10:32;;;;;;;5.27;3.80;;;;;;;;;;5113771;28;20226;-78
2024/01/06 05:12:59;;;;;;;5.67;3.00;;;;;;;;;;5114729;28;20305;-78
2024/01/06 05:15:28;;;;;;;4.47;2.87;;;;;;;;;;5114087;28;20628;-77
2024/01/06 05:17:55;;;;;;;5.00;3.10;;;;;;;;;;5113974;28;20305;-78
2024/01/06 05:20:22;;;;;;;6.67;2.80;;;;;;;;;;5113719;28;20200;-78
2024/01/06 05:22:50;;;;;;;6.20;2.43;;;;;;;;;;5114058;28;20754;-78
2024/01/06 05:25:17;;;;;;;4.97;2.07;;;;;;;;;;5113026;28;20289;-77
2024/01/06 05:27:44;;;;;;;3.67;2.10;;;;;;;;;;5114177;28;20198;-78
2024/01/06 05:30:11;;;;;;;6.73;2.27;;;;;;;;;;5113797;28;20221;-77
2024/01/06 05:32:40;;;;;;;2.83;1.83;;;;;;;;;;5114201;28;20760;-78
2024/01/06 05:35:08;;;;;;;3.53;1.60;;;;;;;;;;5113960;28;20249;-77
2024/01/06 05:37:35;;;;;;;4.90;1.60;;;;;;;;;;5112183;28;20685;-77
2024/01/06 05:40:04;;;;;;;3.60;1.33;;;;;;;;;;5113868;28;20288;-77
2024/01/06 05:42:31;;;;;;;2.23;1.17;;;;;;;;;;5107022;28;20205;-77
2024/01/06 05:44:59;;;;;;;2.50;1.13;;;;;;;;;;5096099;28;20251;-78
2024/01/06 05:47:26;;;;;;;3.10;1.40;;;;;;;;;;5110452;28;20289;-77
2024/01/06 05:49:55;;;;;;;2.13;1.03;;;;;;;;;;5112972;28;20329;-78
2024/01/06 05:52:22;;;;;;;1.63;1.07;;;;;;;;;;5114041;28;20193;-78
2024/01/06 05:54:49;;;;;;;1.03;0.83;;;;;;;;;;5112622;28;20789;-76
2024/01/06 05:57:16;;;;;;;1.90;0.80;;;;;;;;;;5113067;28;20288;-77
2024/01/06 05:59:43;;;;;;;2.40;1.07;;;;;;;;;;5112980;28;20222;-78
2024/01/06 06:02:10;;;;;;;1.97;0.70;;;;;;;;;;5113542;28;20285;-77
2024/01/06 06:04:37;;;;;;;2.10;0.83;;;;;;;;;;5112683;28;20293;-78
2024/01/06 06:07:06;;;;;;;1.80;1.00;;;;;;;;;;5113126;28;20226;-77
2024/01/06 06:09:34;;;;;;;1.97;0.70;;;;;;;;;;5112645;28;20281;-78
2024/01/06 06:12:01;;;;;;;2.17;0.90;;;;;;;;;;5113219;28;20247;-78
2024/01/06 06:14:29;;;;;;;4.40;1.10;;;;;;;;;;5113168;28;20316;-78
2024/01/06 06:16:56;;;;;;;3.17;0.90;;;;;;;;;;5112782;28;20678;-78
2024/01/06 06:19:23;;;;;;;2.60;0.93;;;;;;;;;;5112581;28;20190;-77
2024/01/06 06:21:50;;;;;;;3.50;1.00;;;;;;;;;;5112134;28;20282;-77
2024/01/06 06:24:19;;;;;;;1.80;0.90;;;;;;;;;;5112745;28;20221;-76
2024/01/06 06:26:46;;;;;;;2.60;0.90;;;;;;;;;;5112705;28;20194;-77
2024/01/06 06:29:13;;;;;;;2.00;1.00;;;;;;;;;;5113165;28;20193;-77
2024/01/06 06:31:42;;;;;;;1.43;0.90;;;;;;;;;;5112580;28;20235;-75
2024/01/06 06:34:09;;;;;;;1.10;0.80;;;;;;;;;;5112502;28;20275;-77
2024/01/06 06:36:36;;;;;;;1.60;0.70;;;;;;;;;;5111921;28;20206;-77
2024/01/06 06:39:04;;;;;;;1.47;0.97;;;;;;;;;;5112014;28;20317;-77
2024/01/06 06:41:32;;;;;;;2.87;1.20;;;;;;;;;;5112653;28;20194;-77
2024/01/06 06:44:00;;;;;;;3.80;1.43;;;;;;;;;;5112106;28;20201;-77
2024/01/06 06:46:27;;;;;;;2.57;1.20;;;;;;;;;;5112697;28;20194;-77
2024/01/06 06:48:55;;;;;;;1.60;1.20;;;;;;;;;;5112093;28;20221;-77
2024/01/06 06:51:25;;;;;;;3.20;1.57;;;;;;;;;;5112394;28;20190;-77
2024/01/06 06:53:52;;;;;;;4.90;2.50;;;;;;;;;;5111785;28;20217;-77
2024/01/06 06:56:19;;;;;;;4.13;2.47;;;;;;;;;;5112533;28;20189;-77
2024/01/06 06:58:48;;;;;;;4.70;2.50;;;;;;;;;;5112260;28;20216;-77
2024/01/06 07:01:15;;;;;;;5.97;2.53;;;;;;;;;;5111112;28;20313;-76
2024/01/06 07:03:42;;;;;;;5.00;1.77;;;;;;;;;;5111970;28;20729;-77
2024/01/06 07:06:09;;;;;;;2.70;1.40;;;;;;;;;;5112480;28;20196;-77
2024/01/06 07:08:38;;;;;;;2.63;1.50;;;;;;;;;;5112014;28;20288;-77
2024/01/06 07:11:05;;;;;;;3.90;1.57;;;;;;;;;;5112173;28;20218;-77
2024/01/06 07:13:32;;;;;;;3.60;1.97;;;;;;;;;;5111216;28;20213;-77
2024/01/06 07:16:01;;;;;;;4.53;2.50;;;;;;;;;;5111685;28;20284;-78
2024/01/06 07:18:28;;;;;;;5.93;3.23;;;;;;;;;;5112092;28;20286;-77
2024/01/06 07:20:55;;;;;;;5.67;3.90;;;;;;;;;;5111305;28;20622;-77
2024/01/06 07:23:22;;;;;;;7.23;4.00;;;;;;;;;;5111283;28;20190;-76
2024/01/06 07:25:49;;;;;;;6.03;4.00;;;;;;;;;;5111516;28;20237;-77
2024/01/06 07:28:16;;;;;;;6.93;3.53;;;;;;;;;;5111626;28;20217;-77
2024/01/06 07:30:44;;;;;;;4.87;3.10;;;;;;;;;;5111962;28;20299;-77
2024/01/06 07:33:12;;;;;;;5.17;2.40;;;;;;;;;;5110863;28;20194;-76
2024/01/06 07:35:43;;;;;;;4.87;2.00;;;;;;;;;;5110609;28;20280;-78
2024/01/06 07:38:11;;;;;;;2.60;1.33;;;;;;;;;;5111594;28;20203;-79
2024/01/06 07:40:38;;;;;;;5.07;1.70;;;;;;;;;;5111799;28;20193;-77
2024/01/06 07:43:05;;;;;;;3.77;1.97;;;;;;;;;;5111097;28;20690;-78
2024/01/06 07:45:32;;;;;;;5.37;2.40;;;;;;;;;;5112190;28;20288;-77
2024/01/06 07:47:59;;;;;;;4.27;3.00;;;;;;;;;;5111352;28;20223;-77
2024/01/06 07:50:28;;;;;;;4.60;2.77;;;;;;;;;;5111870;28;20194;-77
2024/01/06 07:52:56;;;;;;;4.73;2.40;;;;;;;;;;5110933;28;20579;-77
2024/01/06 07:55:23;;;;;;;6.83;2.90;;;;;;;;;;5111447;28;20323;-77
2024/01/06 07:57:50;;;;;;;6.87;2.70;;;;;;;;;;5111506;28;20281;-77
2024/01/06 08:00:17;;;;;;;4.77;3.13;;;;;;;;;;5110611;28;20781;-77
2024/01/06 08:02:45;;;;;;;6.97;4.17;;;;;;;;;;5110924;28;20304;-77
2024/01/06 08:05:12;;;;;;;6.60;3.73;;;;;;;;;;5110618;28;20213;-77
2024/01/06 08:07:41;;;;;;;8.97;4.63;;;;;;;;;;5110848;28;20185;-77
2024/01/06 08:10:08;;;;;;;8.93;4.10;;;;;;;;;;5111926;28;20242;-77
2024/01/06 08:12:36;;;;;;;7.83;4.10;;;;;;;;;;5111239;28;20197;-76
2024/01/06 08:15:04;;;;;;;8.93;4.50;;;;;;;;;;5110633;28;20257;-77
2024/01/06 08:17:31;;;;;;;9.60;4.47;;;;;;;;;;5111533;28;20277;-77
2024/01/06 08:19:59;;;;;;;7.03;4.53;;;;;;;;;;5110584;28;20200;-77
2024/01/06 08:22:26;;;;;;;9.03;4.50;;;;;;;;;;5110645;28;20186;-76
2024/01/06 08:24:55;;;;;;;8.73;4.03;;;;;;;;;;5111209;28;20193;-76
2024/01/06 08:27:23;;;;;;;11.70;4.33;;;;;;;;;;5110740;28;20285;-76
2024/01/06 08:29:50;;;;;;;10.03;5.10;;;;;;;;;;5109108;28;20311;-76
2024/01/06 08:32:18;;;;;;;18.83;6.10;;;;;;;;;;5110408;28;20302;-77
2024/01/06 08:34:45;;;;;;;10.83;6.00;;;;;;;;;;5110742;28;20233;-77
2024/01/06 08:37:13;;;;;;;10.00;5.00;;;;;;;;;;5107234;28;20225;-77
2024/01/06 08:39:41;;;;;;;8.00;4.20;;;;;;;;;;5107575;28;20202;-77
2024/01/06 08:42:09;;;;;;;7.20;3.93;;;;;;;;;;5107255;28;20278;-78
2024/01/06 08:44:36;;;;;;;4.47;3.23;;;;;;;;;;5104768;28;20301;-77
2024/01/06 08:47:03;;;;;;;5.83;3.30;;;;;;;;;;5114537;28;20622;-78
2024/01/06 08:49:31;;;;;;;4.90;2.20;;;;;;;;;;5114023;28;20194;-78
2024/01/06 08:51:59;;;;;;;3.37;2.27;;;;;;;;;;5114386;28;20276;-78
2024/01/06 08:54:26;;;;;;;4.87;1.97;;;;;;;;;;5114901;28;20232;-79
2024/01/06 08:56:53;;;;;;;3.90;1.50;;;;;;;;;;5114891;28;20733;-78
2024/01/06 08:59:21;;;;;;;3.57;1.50;;;;;;;;;;5115310;28;20778;-78
2024/01/06 09:01:49;;;;;;;4.70;1.50;;;;;;;;;;5114378;28;20229;-77
2024/01/06 09:04:16;;;;;;;3.27;1.30;;;;;;;;;;5113171;28;20289;-77
2024/01/06 09:06:43;;;;;;;2.93;1.70;;;;;;;;;;5114481;28;20741;-78
2024/01/06 09:09:10;;;;;;;4.40;1.43;;;;;;;;;;5113963;28;20194;-78
2024/01/06 09:11:37;;;;;;;3.00;1.40;;;;;;;;;;5113960;28;20192;-78
2024/01/06 09:14:05;;;;;;;3.90;1.63;;;;;;;;;;5114132;28;20241;-78
2024/01/06 09:16:33;;;;;;;3.90;1.80;;;;;;;;;;5112804;28;20229;-78
2024/01/06 09:19:00;;;;;;;5.77;2.23;;;;;;;;;;5114159;28;20281;-77
2024/01/06 09:21:27;;;;;;;3.90;1.70;;;;;;;;;;5114028;28;20286;-77
2024/01/06 09:23:55;;;;;;;4.40;1.60;;;;;;;;;;5113609;28;20281;-78
2024/01/06 09:26:22;;;;;;;3.63;1.70;;;;;;;;;;5113388;28;20201;-77
2024/01/06 09:28:49;;;;;;;2.80;1.50;;;;;;;;;;5113990;28;20280;-77
2024/01/06 09:31:16;;;;;;;4.77;1.67;;;;;;;;;;5113713;28;20221;-77
2024/01/06 09:33:45;;;;;;;2.80;1.60;;;;;;;;;;5113496;28;20281;-78
2024/01/06 09:36:13;;;;;;;3.07;1.60;;;;;;;;;;5113792;28;20201;-78
2024/01/06 09:38:40;;;;;;;3.53;1.70;;;;;;;;;;5113434;28;20646;-78
2024/01/06 09:41:08;;;;;;;3.17;1.90;;;;;;;;;;5111107;28;20753;-78
2024/01/06 09:43:35;;;;;;;4.23;2.90;;;;;;;;;;5096469;28;20215;-78
2024/01/06 09:46:07;;;;;;;6.37;3.20;;;;;;;;;;5113692;28;20211;-78
2024/01/06 09:48:37;;;;;;;3.63;2.30;;;;;;;;;;5113252;28;20197;-78
2024/01/06 09:51:06;;;;;;;3.37;1.90;;;;;;;;;;5113371;28;20292;-78
2024/01/06 09:53:36;;;;;;;3.47;1.67;;;;;;;;;;5113560;28;20194;-78
2024/01/06 09:56:04;;;;;;;1.90;1.50;;;;;;;;;;5113908;27;20303;-78
2024/01/06 09:58:34;;;;;;;2.53;1.67;;;;;;;;;;5110306;27;20245;-78
2024/01/06 10:01:02;;;;;;;2.93;1.30;;;;;;;;;;5114997;27;20240;-77
2024/01/06 10:03:29;;;;;;;6.23;2.00;;;;;;;;;;5122094;27;20217;-77
2024/01/06 10:06:00;;;;;;;2.83;1.13;;;;;;;;;;5123571;27;20244;-77
2024/01/06 10:08:28;;;;;;;3.00;1.40;;;;;;;;;;5122037;27;20288;-77
2024/01/06 10:10:56;;;;;;;4.20;1.47;;;;;;;;;;5119872;27;20688;-77
2024/01/06 10:13:23;;;;;;;3.90;1.60;;;;;;;;;;5119387;27;20224;-78
2024/01/06 10:15:51;;;;;;;3.40;1.43;;;;;;;;;;5119625;27;20319;-76
2024/01/06 10:18:18;;;;;;;5.60;1.50;;;;;;;;;;5119071;27;20189;-78
2024/01/06 10:20:45;;;;;;;4.63;1.30;;;;;;;;;;5122336;27;20293;-78
2024/01/06 10:23:13;;;;;;;3.23;1.30;;;;;;;;;;5126008;27;20193;-78
2024/01/06 10:25:42;;;;;;;3.90;1.37;;;;;;;;;;5128462;27;20190;-77
2024/01/06 10:28:13;;;;;;;2.97;1.30;;;;;;;;;;5112667;28;20202;-77
2024/01/06 10:30:40;;;;;;;2.23;1.30;;;;;;;;;;5130007;27;20196;-77
2024/01/06 10:33:10;;;;;;;2.40;1.27;;;;;;;;;;5114294;27;20244;-78
2024/01/06 10:35:38;;;;;;;3.47;1.48;;;;;;;;;;5128534;27;20244;-76
2024/01/06 10:38:06;;;;;;;2.13;1.50;;;;;;;;;;5117661;27;20266;-77
2024/01/06 10:40:33;;;;;;;5.27;1.57;;;;;;;;;;5118818;27;20205;-77
2024/01/06 10:43:02;;;;;;;3.25;1.55;;;;;;;;;;5119868;27;20590;-78
2024/01/06 10:45:30;;;;;;;4.38;1.50;;;;;;;;;;5124288;27;20217;-78
2024/01/06 10:47:58;;;;;;;4.18;1.30;;;;;;;;;;5114802;27;20753;-78
2024/01/06 10:50:25;;;;;;;2.05;1.42;;;;;;;;;;5114951;27;20288;-77
2024/01/06 10:52:53;;;;;;;3.08;1.30;;;;;;;;;;5109293;27;20738;-77
2024/01/06 10:55:21;;;;;;;4.28;2.28;;;;;;;;;;5108095;27;20221;-78
2024/01/06 10:57:48;;;;;;;5.53;2.33;;;;;;;;;;5120175;27;20189;-79
2024/01/06 11:00:17;;;;;;;3.50;1.30;;;;;;;;;;5127246;27;20791;-80
2024/01/06 11:02:46;;;;;;;4.63;1.60;;;;;;;;;;5131777;27;20189;-81
2024/01/06 11:05:14;;;;;;;6.37;1.50;;;;;;;;;;5110898;28;20201;-79
2024/01/06 11:07:42;;;;;;;4.93;1.57;;;;;;;;;;5113580;27;20658;-80
2024/01/06 11:10:12;;;;;;;3.73;1.60;;;;;;;;;;5111582;27;20270;-81
2024/01/06 11:12:39;;;;;;;3.20;1.20;;;;;;;;;;5112534;27;20733;-81
2024/01/06 11:15:07;;;;;;;3.43;1.13;;;;;;;;;;5109381;27;20371;-81
2024/01/06 11:17:55;;;;;;;5.50;1.43;;;;;;;;;;5112265;28;20273;-80
2024/01/06 11:20:22;;;;;;;5.23;1.20;;;;;;;;;;5113575;27;20197;-81
2024/01/06 11:22:49;;;;;;;12.87;4.10;;;;;;;;;;5112443;27;20216;-81
2024/01/06 11:25:18;;;;;;;3.93;1.27;;;;;;;;;;5113408;27;21059;-80
2024/01/06 11:27:46;;;;;;;5.10;1.80;;;;;;;;;;5115720;27;20201;-80
2024/01/06 11:30:21;;;;;;;4.37;2.63;;;;;;;;;;5116420;27;20189;-80
2024/01/06 11:32:48;;;;;;;2.87;1.50;;;;;;;;;;5119151;27;20207;-80
2024/01/06 11:35:17;;;;;;;4.67;1.60;;;;;;;;;;5111637;27;21055;-78
2024/01/06 11:37:56;;;;;;;5.13;1.73;;;;;;;;;;5110018;28;20194;-81
2024/01/06 11:40:24;;;;;;;3.83;1.43;;;;;;;;;;5114038;28;20185;-80
2024/01/06 11:42:58;;;;;;;3.33;1.60;;;;;;;;;;5120361;27;20661;-80
2024/01/06 11:45:26;;;;;;;3.00;1.70;;;;;;;;;;5111136;28;20194;-80
2024/01/06 11:47:56;;;;;;;5.00;1.50;;;;;;;;;;5108881;28;20200;-80
2024/01/06 11:50:24;;;;;;;7.67;1.60;;;;;;;;;;5111029;28;20194;-80
2024/01/06 11:52:52;;;;;;;6.20;1.53;;;;;;;;;;5110679;28;20280;-80
2024/01/06 11:55:19;;;;;;;4.77;1.47;;;;;;;;;;5110329;28;20312;-79
2024/01/06 11:57:47;;;;;;;4.20;1.40;;;;;;;;;;5103044;28;20202;-79
2024/01/06 12:00:15;;;;;;;4.17;1.40;;;;;;;;;;5104688;28;20612;-81
2024/01/06 12:02:42;;;;;;;4.33;1.20;;;;;;;;;;5098110;28;20209;-81
2024/01/06 12:05:14;;;;;;;4.20;1.70;;;;;;;;;;5105092;28;20294;-81
2024/01/06 12:07:43;;;;;;;2.40;1.23;;;;;;;;;;5091005;28;20206;-81
2024/01/06 12:10:11;;;;;;;3.67;1.40;;;;;;;;;;5110773;28;20648;-81
2024/01/06 12:12:39;;;;;;;4.20;1.20;;;;;;;;;;5096181;28;20226;-81
2024/01/06 12:15:09;;;;;;;4.30;1.20;;;;;;;;;;5109510;28;20728;-80
2024/01/06 12:17:37;;;;;;;4.67;1.50;;;;;;;;;;5110407;28;20255;-81
2024/01/06 12:20:04;;;;;;;3.50;1.50;;;;;;;;;;5111656;28;20193;-80
2024/01/06 12:22:31;;;;;;;3.23;1.20;;;;;;;;;;5111715;28;20653;-80
2024/01/06 12:25:01;;;;;;;4.47;1.30;;;;;;;;;;5113038;27;20220;-80
2024/01/06 12:27:28;;;;;;;4.27;1.30;;;;;;;;;;5114547;28;20651;-80
2024/01/06 12:29:56;;;;;;;3.80;1.40;;;;;;;;;;5113843;28;20201;-79
2024/01/06 12:32:23;;;;;;;3.37;1.23;;;;;;;;;;5124397;27;20201;-80
2024/01/06 12:34:52;;;;;;;4.23;1.73;;;;;;;;;;5117510;27;20228;-80
2024/01/06 12:37:19;;;;;;;2.07;1.47;;;;;;;;;;5114459;27;20741;-81
2024/01/06 12:39:48;;;;;;;2.97;1.50;;;;;;;;;;5116626;27;20637;-80
2024/01/06 12:42:19;;;;;;;3.33;1.60;;;;;;;;;;5114179;27;20290;-80
2024/01/06 12:44:47;;;;;;;5.00;1.40;;;;;;;;;;5113130;27;20250;-80
2024/01/06 12:47:14;;;;;;;2.73;1.90;;;;;;;;;;5120632;27;20194;-80
2024/01/06 12:49:41;;;;;;;4.97;1.30;;;;;;;;;;5124477;27;20288;-80
2024/01/06 12:52:08;;;;;;;4.80;1.30;;;;;;;;;;5116423;27;20285;-80
2024/01/06 12:54:35;;;;;;;3.43;1.60;;;;;;;;;;5111600;27;20308;-81
2024/01/06 12:57:03;;;;;;;4.17;1.80;;;;;;;;;;5112937;27;20253;-80
2024/01/06 12:59:31;;;;;;;3.67;1.40;;;;;;;;;;5117507;27;20337;-80
2024/01/06 13:01:58;;;;;;;4.77;0.90;;;;;;;;;;5116229;27;20235;-80
2024/01/06 13:04:26;;;;;;;3.03;1.00;;;;;;;;;;5113356;27;20202;-79
2024/01/06 13:06:53;;;;;;;1.63;0.97;;;;;;;;;;5112609;28;20221;-79
2024/01/06 13:09:23;;;;;;;3.93;1.50;;;;;;;;;;5114017;28;20725;-80
2024/01/06 13:11:51;;;;;;;1.63;1.10;;;;;;;;;;5113894;28;20194;-80
2024/01/06 13:14:18;;;;;;;3.50;1.10;;;;;;;;;;5112621;27;20727;-82
2024/01/06 13:16:46;;;;;;;2.80;1.33;;;;;;;;;;5114807;27;20217;-80
2024/01/06 13:19:14;;;;;;;1.90;0.93;;;;;;;;;;5108584;27;20570;-80
2024/01/06 13:21:41;;;;;;;4.57;1.10;;;;;;;;;;5111405;28;20275;-80
2024/01/06 13:24:09;;;;;;;1.90;0.80;;;;;;;;;;5111668;27;20582;-80
2024/01/06 13:26:36;;;;;;;3.67;1.23;;;;;;;;;;5108884;28;20258;-79
2024/01/06 13:29:03;;;;;;;2.93;1.47;;;;;;;;;;5109340;28;20201;-80
2024/01/06 13:31:32;;;;;;;3.87;1.50;;;;;;;;;;5113726;27;20229;-79
2024/01/06 13:34:01;;;;;;;4.80;1.50;;;;;;;;;;5123819;27;20201;-79
2024/01/06 13:36:28;;;;;;;4.20;1.67;;;;;;;;;;5123719;27;20230;-80
2024/01/06 13:38:55;;;;;;;3.50;1.80;;;;;;;;;;5129966;27;20193;-79
2024/01/06 13:41:23;;;;;;;4.47;1.70;;;;;;;;;;5113753;27;20209;-80
2024/01/06 13:43:50;;;;;;;5.90;1.53;;;;;;;;;;5113898;27;20202;-79
2024/01/06 13:46:18;;;;;;;3.40;1.43;;;;;;;;;;5115246;27;20190;-79
2024/01/06 13:48:45;;;;;;;2.17;1.23;;;;;;;;;;5115125;27;20854;-78
2024/01/06 13:51:13;;;;;;;3.87;1.43;;;;;;;;;;5114675;27;20193;-79
2024/01/06 13:53:41;;;;;;;4.77;1.27;;;;;;;;;;5113396;27;20222;-80
2024/01/06 13:56:08;;;;;;;4.03;0.90;;;;;;;;;;5119131;27;20221;-80
2024/01/06 13:58:38;;;;;;;3.77;1.00;;;;;;;;;;5120361;27;20839;-80
2024/01/06 14:01:05;;;;;;;4.20;1.13;;;;;;;;;;5119071;27;20271;-80
2024/01/06 14:03:32;;;;;;;3.77;1.00;;;;;;;;;;5118408;27;20276;-80
2024/01/06 14:05:59;;;;;;;4.07;1.03;;;;;;;;;;5124543;27;20201;-80
2024/01/06 14:08:28;;;;;;;4.70;1.20;;;;;;;;;;5117941;27;20285;-79
2024/01/06 14:10:55;;;;;;;2.80;0.90;;;;;;;;;;5123538;27;20700;-80
2024/01/06 14:13:22;;;;;;;3.30;1.00;;;;;;;;;;5123075;27;20189;-80
2024/01/06 14:15:50;;;;;;;2.57;0.90;;;;;;;;;;5120978;27;20311;-80
2024/01/06 14:18:17;;;;;;;3.17;0.93;;;;;;;;;;5126382;27;20670;-80
2024/01/06 14:20:44;;;;;;;2.47;1.03;;;;;;;;;;5122812;27;20232;-80
2024/01/06 14:23:12;;;;;;;2.43;0.80;;;;;;;;;;5117365;27;20225;-78
2024/01/06 14:25:41;;;;;;;2.93;1.00;;;;;;;;;;5120156;27;20189;-80
2024/01/06 14:28:08;;;;;;;2.63;1.23;;;;;;;;;;5122074;27;20729;-80
2024/01/06 14:30:35;;;;;;;3.53;0.90;;;;;;;;;;5120672;27;21478;-80
2024/01/06 14:33:03;;;;;;;2.13;0.90;;;;;;;;;;5121861;27;20286;-81
2024/01/06 14:35:30;;;;;;;4.57;1.03;;;;;;;;;;5123240;27;20308;-80
2024/01/06 14:37:57;;;;;;;2.67;1.00;;;;;;;;;;5124784;27;20673;-80
2024/01/06 14:40:24;;;;;;;2.90;1.13;;;;;;;;;;5119679;27;20705;-87